Boa Nova, Brazil
Current Conditions -  °F | °C
As of 8:00 AM on Saturday 25 Oct 2014 (Local Time) from SBQV Reporting Station
Broken Clouds Broken Clouds  
Wind Chill: 66°   Ceiling: 1100
Heat Index: 66°   Visibility: 6mi
Dew Point: 64°   Wind: 7mph
Humidity: 94%   Direction: 40°NE
Pressure: 30.12"   Gusts: NA
Location:  14.36°S, 40.21°W
Report Text: SBQV 251100Z 04006KT 9999 BKN011 19/18 Q1020
Loading
Personal Weather Stations






























Interactive Weather Map
Tropical Storm Tracking
New forecast layout! Learn more

10-Day Weather Forecast

Advertisements
Track Severe Weather on mobile